createdAt,value
2018-09-01T00:00:49.957Z,15.80
2018-09-01T00:03:18.408Z,15.80
2018-09-01T00:05:46.741Z,15.70
2018-09-01T00:08:15.118Z,15.70
2018-09-01T00:10:43.572Z,15.70
2018-09-01T00:13:12.053Z,15.70
2018-09-01T00:15:40.394Z,15.70
2018-09-01T00:18:08.729Z,15.70
2018-09-01T00:20:37.052Z,15.70
2018-09-01T00:23:05.643Z,15.70
2018-09-01T00:25:33.970Z,15.60
2018-09-01T00:28:02.336Z,15.60
2018-09-01T00:30:30.661Z,15.60
2018-09-01T00:32:58.963Z,15.60
2018-09-01T00:35:27.307Z,15.60
2018-09-01T00:38:01.004Z,15.60
2018-09-01T00:40:29.390Z,15.50
2018-09-01T00:42:59.521Z,15.60
2018-09-01T00:45:28.195Z,15.50
2018-09-01T00:47:56.789Z,15.60
2018-09-01T00:50:25.683Z,15.60
2018-09-01T00:52:54.026Z,15.60
2018-09-01T00:55:27.520Z,15.60
2018-09-01T00:57:55.849Z,15.60
2018-09-01T01:00:24.272Z,15.60
2018-09-01T01:02:52.623Z,15.60
2018-09-01T01:05:21.351Z,15.60
2018-09-01T01:07:49.734Z,15.50
2018-09-01T01:10:18.078Z,15.50
2018-09-01T01:12:47.556Z,15.50
2018-09-01T01:15:15.940Z,15.50
2018-09-01T01:17:50.801Z,15.50
2018-09-01T01:20:19.067Z,15.50
2018-09-01T01:22:47.369Z,15.50
2018-09-01T01:25:15.754Z,15.50
2018-09-01T01:27:44.168Z,15.50
2018-09-01T01:30:12.731Z,15.50
2018-09-01T01:32:41.125Z,15.50
2018-09-01T01:35:09.553Z,15.50
2018-09-01T01:37:37.838Z,15.40
2018-09-01T01:40:06.476Z,15.50
2018-09-01T01:42:36.810Z,15.50
2018-09-01T01:45:05.656Z,15.40
2018-09-01T01:47:40.393Z,15.50
2018-09-01T01:50:10.037Z,15.40
2018-09-01T01:52:39.426Z,15.40
2018-09-01T01:55:09.736Z,15.40
2018-09-01T01:57:44.484Z,15.40
2018-09-01T02:00:13.915Z,15.40
2018-09-01T02:02:43.271Z,15.40
2018-09-01T02:05:15.889Z,15.40
2018-09-01T02:07:45.646Z,15.40
2018-09-01T02:10:14.278Z,15.40
2018-09-01T02:12:42.660Z,15.40
2018-09-01T02:15:13.082Z,15.40
2018-09-01T02:17:43.527Z,15.30
2018-09-01T02:20:12.032Z,15.40
2018-09-01T02:22:40.475Z,15.30
2018-09-01T02:25:08.842Z,15.30
2018-09-01T02:27:38.242Z,15.30
2018-09-01T02:30:07.655Z,15.40
2018-09-01T02:32:37.006Z,15.30
2018-09-01T02:35:05.455Z,15.30
2018-09-01T02:37:34.857Z,15.40
2018-09-01T02:40:04.448Z,15.30
2018-09-01T02:42:32.768Z,15.30
2018-09-01T02:45:01.163Z,15.30
2018-09-01T02:47:29.543Z,15.30
2018-09-01T02:49:57.967Z,15.30
2018-09-01T02:52:28.363Z,15.30
2018-09-01T02:54:56.756Z,15.30
2018-09-01T02:57:29.102Z,15.30
2018-09-01T02:59:59.455Z,15.30
2018-09-01T03:02:33.253Z,15.30
2018-09-01T03:05:04.045Z,15.30
2018-09-01T03:07:32.485Z,15.30
2018-09-01T03:10:00.976Z,15.30
2018-09-01T03:12:29.324Z,15.30
2018-09-01T03:15:19.826Z,15.30
2018-09-01T03:17:48.336Z,15.30
2018-09-01T03:20:16.769Z,15.30
2018-09-01T03:22:46.126Z,15.30
2018-09-01T03:25:15.489Z,15.30
2018-09-01T03:27:45.882Z,15.20
2018-09-01T03:30:14.254Z,15.20
2018-09-01T03:32:42.636Z,15.30
2018-09-01T03:35:12.175Z,15.20
2018-09-01T03:37:44.515Z,15.20
2018-09-01T03:40:13.116Z,15.20
2018-09-01T03:42:42.520Z,15.20
2018-09-01T03:45:11.025Z,15.20
2018-09-01T03:47:40.396Z,15.20
2018-09-01T03:50:08.893Z,15.20
2018-09-01T03:52:37.252Z,15.20
2018-09-01T03:55:05.933Z,15.20
2018-09-01T03:57:34.305Z,15.10
2018-09-01T04:00:03.856Z,15.10
2018-09-01T04:02:32.196Z,15.10
2018-09-01T04:05:00.611Z,15.10
2018-09-01T04:07:28.951Z,15.10
2018-09-01T04:09:57.331Z,15.10
2018-09-01T04:12:25.710Z,15.10
2018-09-01T04:14:55.117Z,15.10
2018-09-01T04:17:23.516Z,15.10
2018-09-01T04:19:51.860Z,15.10
2018-09-01T04:22:20.600Z,15.00
2018-09-01T04:24:48.906Z,15.00
2018-09-01T04:27:17.300Z,15.00
2018-09-01T04:29:47.657Z,15.00
2018-09-01T04:32:16.021Z,14.90
2018-09-01T04:34:44.478Z,15.00
2018-09-01T04:37:12.960Z,14.90
2018-09-01T04:39:41.390Z,14.90
2018-09-01T04:42:09.758Z,14.90
2018-09-01T04:44:38.119Z,14.90
2018-09-01T04:47:06.734Z,14.90
2018-09-01T04:49:35.888Z,14.90
2018-09-01T04:52:04.294Z,14.90
2018-09-01T04:54:32.634Z,14.90
2018-09-01T04:57:01.955Z,14.90
2018-09-01T04:59:31.332Z,14.80
2018-09-01T05:01:59.620Z,14.80
2018-09-01T05:04:27.987Z,14.80
2018-09-01T05:06:56.957Z,14.80
2018-09-01T05:09:25.397Z,14.80
2018-09-01T05:11:53.782Z,14.80
2018-09-01T05:14:22.359Z,14.80
2018-09-01T05:16:52.693Z,14.80
2018-09-01T05:19:21.721Z,14.80
2018-09-01T05:21:50.228Z,14.70
2018-09-01T05:24:18.666Z,14.80
2018-09-01T05:26:47.084Z,14.70
2018-09-01T05:29:15.572Z,14.80
2018-09-01T05:31:44.021Z,14.70
2018-09-01T05:34:12.722Z,14.70
2018-09-01T05:36:41.324Z,14.80
2018-09-01T05:39:09.969Z,14.80
2018-09-01T05:41:40.408Z,14.80
2018-09-01T05:44:08.785Z,14.80
2018-09-01T05:46:38.183Z,14.70
2018-09-01T05:49:06.530Z,14.70
2018-09-01T05:51:35.961Z,14.70
2018-09-01T05:54:04.323Z,14.70
2018-09-01T05:56:32.717Z,14.80
2018-09-01T05:59:01.177Z,14.80
2018-09-01T06:01:29.719Z,14.80
2018-09-01T06:03:58.091Z,14.80
2018-09-01T06:06:26.676Z,14.80
2018-09-01T06:08:54.989Z,14.80
2018-09-01T06:11:23.520Z,14.90
2018-09-01T06:13:51.874Z,14.90
2018-09-01T06:16:20.396Z,15.00
2018-09-01T06:18:48.834Z,15.00
2018-09-01T06:21:17.229Z,15.10
2018-09-01T06:23:46.670Z,15.10
2018-09-01T06:26:16.021Z,15.20
2018-09-01T06:28:49.568Z,15.30
2018-09-01T06:34:09.566Z,15.40
2018-09-01T06:36:37.969Z,15.50
2018-09-01T06:39:07.378Z,15.50
2018-09-01T06:41:35.783Z,15.60
2018-09-01T06:44:04.380Z,15.60
2018-09-01T06:46:33.096Z,15.70
2018-09-01T06:49:01.502Z,15.70
2018-09-01T06:51:31.944Z,15.70
2018-09-01T06:54:01.290Z,15.60
2018-09-01T06:56:31.685Z,15.60
2018-09-01T06:59:00.102Z,15.60
2018-09-01T07:01:29.437Z,15.60
2018-09-01T07:03:57.891Z,15.60
2018-09-01T07:06:28.227Z,15.60
2018-09-01T07:08:56.692Z,15.60
2018-09-01T07:11:25.216Z,15.60
2018-09-01T07:13:55.546Z,15.60
2018-09-01T07:16:24.064Z,15.60
2018-09-01T07:18:55.500Z,15.60
2018-09-01T07:21:24.079Z,15.60
2018-09-01T07:23:54.493Z,15.60
2018-09-01T07:26:23.070Z,15.60
2018-09-01T07:28:51.470Z,15.60
2018-09-01T07:31:21.208Z,15.60
2018-09-01T07:33:50.344Z,15.70
2018-09-01T07:36:18.744Z,15.70
2018-09-01T07:38:47.209Z,15.70
2018-09-01T07:41:17.539Z,15.80
2018-09-01T07:43:45.986Z,15.90
2018-09-01T07:46:14.496Z,15.90
2018-09-01T07:48:42.902Z,16.00
2018-09-01T07:51:11.255Z,16.10
2018-09-01T07:53:39.733Z,16.20
2018-09-01T07:56:08.237Z,16.30
2018-09-01T07:58:36.726Z,16.40
2018-09-01T08:01:09.020Z,16.60
2018-09-01T08:03:37.424Z,16.80
2018-09-01T08:06:06.107Z,17.00
2018-09-01T08:08:34.757Z,17.20
2018-09-01T08:11:10.777Z,17.30
2018-09-01T08:13:40.375Z,17.50
2018-09-01T08:16:08.754Z,17.90
2018-09-01T08:18:37.188Z,18.20
2018-09-01T08:21:06.108Z,18.50
2018-09-01T08:23:36.524Z,18.60
2018-09-01T08:26:05.247Z,18.70
2018-09-01T08:28:33.560Z,18.70
2018-09-01T08:31:02.922Z,18.70
2018-09-01T08:33:34.446Z,18.60
2018-09-01T08:36:06.282Z,18.60
2018-09-01T08:38:39.725Z,18.50
2018-09-01T08:41:08.541Z,18.50
2018-09-01T08:43:36.937Z,18.50
2018-09-01T08:46:05.533Z,18.50
2018-09-01T08:48:35.120Z,18.50
2018-09-01T08:51:08.008Z,18.50
2018-09-01T08:53:41.648Z,18.50
2018-09-01T08:59:00.975Z,18.60
2018-09-01T09:01:33.358Z,18.60
2018-09-01T09:04:01.928Z,18.60
2018-09-01T09:06:30.337Z,18.60
2018-09-01T09:08:58.677Z,18.50
2018-09-01T09:11:27.121Z,18.50
2018-09-01T09:13:55.500Z,18.50
2018-09-01T09:16:23.940Z,18.60
2018-09-01T09:18:53.154Z,18.60
2018-09-01T09:21:25.529Z,18.50
2018-09-01T09:23:54.097Z,18.50
2018-09-01T09:26:23.730Z,18.40
2018-09-01T09:28:52.235Z,18.40
2018-09-01T09:31:20.935Z,18.50
2018-09-01T09:33:49.428Z,18.60
2018-09-01T09:36:17.933Z,18.60
2018-09-01T09:38:46.855Z,18.70
2018-09-01T09:41:15.267Z,18.70
2018-09-01T09:43:44.309Z,18.80
2018-09-01T09:46:12.892Z,18.60
2018-09-01T09:48:41.358Z,18.50
2018-09-01T09:51:09.785Z,18.50
2018-09-01T09:53:38.144Z,18.60
2018-09-01T09:56:06.530Z,18.70
2018-09-01T09:58:35.048Z,18.80
2018-09-01T10:01:10.703Z,19.00
2018-09-01T10:03:39.074Z,19.20
2018-09-01T10:06:07.581Z,19.40
2018-09-01T10:08:36.032Z,19.50
2018-09-01T10:11:04.547Z,19.60
2018-09-01T10:13:32.885Z,19.60
2018-09-01T10:16:01.362Z,19.70
2018-09-01T10:18:29.732Z,19.70
2018-09-01T10:20:58.157Z,19.60
2018-09-01T10:23:27.562Z,19.80
2018-09-01T10:25:56.099Z,20.30
2018-09-01T10:28:24.454Z,20.60
2018-09-01T10:30:53.003Z,20.60
2018-09-01T10:33:21.720Z,20.60
2018-09-01T10:35:50.555Z,20.40
2018-09-01T10:38:19.003Z,20.30
2018-09-01T10:40:47.340Z,20.40
2018-09-01T10:43:15.704Z,20.60
2018-09-01T10:45:44.072Z,20.70
2018-09-01T10:48:12.528Z,20.80
2018-09-01T10:50:40.842Z,20.90
2018-09-01T10:53:09.159Z,20.80
2018-09-01T10:55:37.647Z,20.70
2018-09-01T10:58:06.028Z,20.60
2018-09-01T11:00:34.381Z,20.60
2018-09-01T11:03:02.832Z,20.70
2018-09-01T11:05:31.397Z,20.60
2018-09-01T11:07:59.724Z,20.60
2018-09-01T11:10:28.176Z,20.70
2018-09-01T11:12:56.660Z,20.60
2018-09-01T11:15:25.153Z,20.60
2018-09-01T11:17:53.517Z,20.50
2018-09-01T11:20:22.023Z,20.50
2018-09-01T11:22:51.342Z,20.50
2018-09-01T11:25:19.726Z,20.40
2018-09-01T11:27:48.114Z,20.50
2018-09-01T11:30:16.494Z,20.40
2018-09-01T11:32:44.865Z,20.30
2018-09-01T11:35:14.300Z,20.40
2018-09-01T11:37:42.693Z,20.50
2018-09-01T11:40:11.169Z,20.60
2018-09-01T11:42:39.604Z,20.60
2018-09-01T11:45:07.934Z,20.60
2018-09-01T11:47:36.315Z,20.60
2018-09-01T11:50:04.709Z,20.70
2018-09-01T11:52:33.137Z,20.70
2018-09-01T11:55:01.571Z,20.80
2018-09-01T11:57:29.988Z,20.80
2018-09-01T11:59:58.458Z,20.80
2018-09-01T12:02:26.827Z,20.70
2018-09-01T12:04:55.239Z,20.60
2018-09-01T12:07:23.671Z,20.50
2018-09-01T12:09:51.997Z,20.50
2018-09-01T12:12:20.366Z,20.40
2018-09-01T12:14:49.105Z,20.40
2018-09-01T12:17:17.517Z,20.40
2018-09-01T12:19:45.956Z,20.30
2018-09-01T12:22:16.564Z,20.30
2018-09-01T12:24:44.838Z,20.10
2018-09-01T12:27:13.347Z,20.10
2018-09-01T12:29:41.705Z,20.10
2018-09-01T12:32:10.077Z,20.20
2018-09-01T12:34:38.509Z,20.20
2018-09-01T12:37:06.885Z,20.40
2018-09-01T12:39:35.270Z,20.40
2018-09-01T12:42:03.666Z,20.40
2018-09-01T12:44:31.966Z,20.50
2018-09-01T12:47:00.330Z,20.40
2018-09-01T12:49:28.680Z,20.40
2018-09-01T12:51:57.065Z,20.40
2018-09-01T12:54:25.470Z,20.40
2018-09-01T12:56:53.838Z,20.40
2018-09-01T12:59:22.322Z,20.50
2018-09-01T13:01:50.684Z,20.50
2018-09-01T13:04:19.032Z,20.50
2018-09-01T13:06:47.485Z,20.50
2018-09-01T13:09:15.825Z,20.50
2018-09-01T13:11:44.173Z,20.50
2018-09-01T13:14:12.778Z,20.40
2018-09-01T13:16:41.128Z,20.40
2018-09-01T13:19:09.560Z,20.30
2018-09-01T13:21:38.055Z,20.20
2018-09-01T13:24:06.515Z,20.20
2018-09-01T13:26:34.890Z,20.10
2018-09-01T13:29:03.253Z,20.00
2018-09-01T13:31:31.660Z,20.00
2018-09-01T13:34:00.036Z,19.90
2018-09-01T13:36:28.470Z,20.00
2018-09-01T13:38:56.811Z,20.00
2018-09-01T13:41:26.149Z,20.00
2018-09-01T13:43:54.485Z,20.10
2018-09-01T13:46:23.141Z,20.10
2018-09-01T13:48:51.460Z,20.10
2018-09-01T13:51:19.829Z,20.20
2018-09-01T13:53:48.177Z,20.20
2018-09-01T13:56:16.529Z,20.20
2018-09-01T13:58:44.958Z,20.10
2018-09-01T14:01:13.351Z,20.20
2018-09-01T14:03:41.680Z,20.20
2018-09-01T14:06:10.232Z,20.10
2018-09-01T14:08:38.692Z,20.10
2018-09-01T14:11:07.084Z,20.10
2018-09-01T14:13:35.635Z,20.10
2018-09-01T14:16:03.995Z,20.00
2018-09-01T14:18:32.354Z,20.00
2018-09-01T14:21:00.791Z,20.10
2018-09-01T14:23:29.191Z,20.10
2018-09-01T14:25:57.528Z,20.10
2018-09-01T14:28:25.990Z,20.10
2018-09-01T14:30:54.386Z,20.00
2018-09-01T14:33:22.852Z,20.00
2018-09-01T14:35:51.334Z,20.00
2018-09-01T14:38:19.760Z,19.90
2018-09-01T14:40:48.061Z,19.90
2018-09-01T14:43:16.423Z,19.80
2018-09-01T14:45:44.781Z,19.80
2018-09-01T14:48:13.295Z,19.70
2018-09-01T14:50:41.592Z,19.70
2018-09-01T14:53:09.976Z,19.70
2018-09-01T14:55:38.281Z,19.70
2018-09-01T14:58:06.719Z,19.60
2018-09-01T15:00:35.040Z,19.60
2018-09-01T15:03:03.339Z,19.60
2018-09-01T15:05:31.786Z,19.50
2018-09-01T15:08:00.426Z,19.50
2018-09-01T15:10:28.911Z,19.50
2018-09-01T15:12:57.203Z,19.50
2018-09-01T15:15:25.597Z,19.60
2018-09-01T15:17:54.035Z,19.50
2018-09-01T15:20:22.492Z,19.50
2018-09-01T15:22:50.871Z,19.50
2018-09-01T15:25:19.483Z,19.40
2018-09-01T15:27:47.827Z,19.40
2018-09-01T15:30:16.112Z,19.40
2018-09-01T15:32:44.599Z,19.30
2018-09-01T15:35:12.870Z,19.30
2018-09-01T15:37:41.136Z,19.30
2018-09-01T15:40:09.486Z,19.30
2018-09-01T15:42:37.940Z,19.30
2018-09-01T15:45:06.381Z,19.30
2018-09-01T15:47:34.678Z,19.30
2018-09-01T15:50:03.110Z,19.20
2018-09-01T15:52:31.576Z,19.20
2018-09-01T15:54:59.885Z,19.20
2018-09-01T15:57:28.315Z,19.20
2018-09-01T15:59:56.647Z,19.10
2018-09-01T16:02:24.977Z,19.10
2018-09-01T16:04:53.366Z,19.00
2018-09-01T16:07:21.679Z,19.00
2018-09-01T16:09:50.049Z,19.00
2018-09-01T16:12:18.345Z,19.00
2018-09-01T16:14:46.761Z,18.90
2018-09-01T16:17:15.075Z,18.90
2018-09-01T16:19:43.552Z,18.80
2018-09-01T16:22:11.863Z,18.80
2018-09-01T16:24:40.244Z,18.70
2018-09-01T16:27:08.532Z,18.70
2018-09-01T16:29:36.840Z,18.70
2018-09-01T16:32:05.446Z,18.70
2018-09-01T16:34:33.865Z,18.70
2018-09-01T16:37:02.173Z,18.60
2018-09-01T16:39:30.517Z,18.60
2018-09-01T16:41:58.843Z,18.60
2018-09-01T16:44:27.203Z,18.50
2018-09-01T16:46:55.496Z,18.50
2018-09-01T16:49:23.805Z,18.50
2018-09-01T16:51:52.118Z,18.50
2018-09-01T16:54:20.465Z,18.40
2018-09-01T16:56:48.842Z,18.30
2018-09-01T16:59:17.133Z,18.10
2018-09-01T17:01:45.556Z,18.00
2018-09-01T17:04:13.836Z,18.00
2018-09-01T17:06:42.145Z,17.90
2018-09-01T17:09:10.761Z,17.80
2018-09-01T17:11:39.955Z,17.60
2018-09-01T17:14:08.349Z,17.50
2018-09-01T17:16:36.669Z,17.50
2018-09-01T17:19:06.009Z,17.40
2018-09-01T17:21:34.335Z,17.40
2018-09-01T17:24:02.775Z,17.30
2018-09-01T17:26:31.165Z,17.30
2018-09-01T17:28:59.517Z,17.30
2018-09-01T17:31:27.932Z,17.30
2018-09-01T17:33:56.344Z,17.30
2018-09-01T17:36:24.745Z,17.20
2018-09-01T17:38:53.253Z,17.20
2018-09-01T17:41:21.678Z,17.20
2018-09-01T17:43:50.013Z,17.20
2018-09-01T17:46:18.386Z,17.10
2018-09-01T17:48:47.926Z,17.10
2018-09-01T17:51:16.256Z,17.10
2018-09-01T17:53:44.630Z,17.10
2018-09-01T17:56:13.106Z,17.00
2018-09-01T17:58:41.509Z,17.00
2018-09-01T18:01:10.923Z,17.00
2018-09-01T18:03:39.330Z,17.00
2018-09-01T18:06:07.675Z,17.00
2018-09-01T18:08:36.044Z,17.00
2018-09-01T18:11:04.617Z,17.00
2018-09-01T18:13:33.004Z,16.90
2018-09-01T18:16:01.719Z,16.90
2018-09-01T18:18:32.587Z,16.90
2018-09-01T18:21:01.032Z,16.80
2018-09-01T18:23:29.566Z,16.80
2018-09-01T18:25:58.571Z,16.80
2018-09-01T18:28:30.419Z,16.80
2018-09-01T18:30:58.746Z,16.80
2018-09-01T18:33:27.111Z,16.80
2018-09-01T18:35:55.598Z,16.80
2018-09-01T18:38:23.886Z,16.80
2018-09-01T18:40:52.372Z,16.80
2018-09-01T18:43:20.792Z,16.80
2018-09-01T18:45:49.174Z,16.80
2018-09-01T18:48:17.567Z,16.80
2018-09-01T18:50:45.894Z,16.80
2018-09-01T18:53:14.212Z,16.70
2018-09-01T18:55:42.501Z,16.80
2018-09-01T18:58:10.967Z,16.70
2018-09-01T19:00:39.321Z,16.80
2018-09-01T19:03:07.873Z,16.70
2018-09-01T19:05:36.269Z,16.70
2018-09-01T19:08:04.763Z,16.70
2018-09-01T19:10:33.128Z,16.70
2018-09-01T19:13:01.551Z,16.70
2018-09-01T19:15:29.962Z,16.70
2018-09-01T19:17:58.395Z,16.60
2018-09-01T19:20:26.717Z,16.70
2018-09-01T19:22:55.453Z,16.70
2018-09-01T19:25:23.961Z,16.60
2018-09-01T19:27:52.366Z,16.60
2018-09-01T19:30:20.944Z,16.60
2018-09-01T19:32:49.418Z,16.60
2018-09-01T19:35:18.046Z,16.60
2018-09-01T19:37:46.466Z,16.60
2018-09-01T19:40:15.056Z,16.70
2018-09-01T19:42:43.506Z,16.60
2018-09-01T19:45:12.221Z,16.60
2018-09-01T19:47:40.685Z,16.50
2018-09-01T19:50:09.225Z,16.50
2018-09-01T19:52:37.648Z,16.60
2018-09-01T19:55:06.304Z,16.60
2018-09-01T19:57:34.811Z,16.50
2018-09-01T20:00:03.288Z,16.60
2018-09-01T20:02:32.592Z,16.60
2018-09-01T20:05:01.170Z,16.60
2018-09-01T20:07:29.447Z,16.60
2018-09-01T20:09:57.740Z,16.60
2018-09-01T20:12:26.192Z,16.60
2018-09-01T20:14:55.667Z,16.60
2018-09-01T20:17:24.336Z,16.60
2018-09-01T20:19:53.301Z,16.50
2018-09-01T20:22:21.709Z,16.50
2018-09-01T20:24:50.133Z,16.50
2018-09-01T20:27:18.488Z,16.60
2018-09-01T20:29:46.925Z,16.50
2018-09-01T20:32:15.313Z,16.50
2018-09-01T20:34:45.778Z,16.50
2018-09-01T20:37:15.960Z,16.50
2018-09-01T20:39:45.314Z,16.50
2018-09-01T20:42:14.148Z,16.50
2018-09-01T20:44:42.843Z,16.50
2018-09-01T20:47:11.326Z,16.50
2018-09-01T20:49:39.923Z,16.50
2018-09-01T20:52:08.413Z,16.50
2018-09-01T20:54:36.903Z,16.50
2018-09-01T20:57:06.639Z,16.50
2018-09-01T20:59:35.307Z,16.50
2018-09-01T21:02:03.987Z,16.50
2018-09-01T21:04:32.431Z,16.50
2018-09-01T21:07:00.965Z,16.40
2018-09-01T21:09:29.496Z,16.50
2018-09-01T21:11:57.852Z,16.50
2018-09-01T21:14:26.276Z,16.50
2018-09-01T21:16:54.741Z,16.50
2018-09-01T21:19:23.141Z,16.50
2018-09-01T21:21:51.465Z,16.50
2018-09-01T21:24:20.007Z,16.50
2018-09-01T21:26:48.354Z,16.50
2018-09-01T21:29:16.840Z,16.50
2018-09-01T21:31:45.594Z,16.50
2018-09-01T21:34:13.968Z,16.50
2018-09-01T21:36:42.263Z,16.50
2018-09-01T21:39:10.691Z,16.40
2018-09-01T21:41:39.053Z,16.40
2018-09-01T21:44:07.396Z,16.50
2018-09-01T21:46:35.800Z,16.40
2018-09-01T21:49:04.264Z,16.50
2018-09-01T21:51:32.644Z,16.50
2018-09-01T21:54:00.973Z,16.50
2018-09-01T21:56:29.299Z,16.40
2018-09-01T21:58:57.688Z,16.40
2018-09-01T22:01:31.535Z,16.40
2018-09-01T22:03:59.948Z,16.40
2018-09-01T22:06:28.367Z,16.40
2018-09-01T22:08:56.728Z,16.40
2018-09-01T22:11:25.093Z,16.40
2018-09-01T22:13:53.482Z,16.40
2018-09-01T22:16:21.871Z,16.40
2018-09-01T22:18:50.528Z,16.40
2018-09-01T22:21:18.859Z,16.40
2018-09-01T22:23:47.203Z,16.40
2018-09-01T22:26:15.557Z,16.30
2018-09-01T22:28:44.027Z,16.30
2018-09-01T22:31:12.565Z,16.30
2018-09-01T22:33:40.911Z,16.30
2018-09-01T22:36:09.303Z,16.30
2018-09-01T22:38:37.692Z,16.30
2018-09-01T22:41:06.040Z,16.30
2018-09-01T22:43:34.374Z,16.30
2018-09-01T22:46:02.866Z,16.30
2018-09-01T22:48:31.297Z,16.30
2018-09-01T22:50:59.623Z,16.30
2018-09-01T22:53:27.998Z,16.30
2018-09-01T22:55:56.344Z,16.30
2018-09-01T22:58:24.814Z,16.30
2018-09-01T23:00:53.115Z,16.30
2018-09-01T23:03:21.422Z,16.30
2018-09-01T23:05:49.711Z,16.30
2018-09-01T23:08:18.057Z,16.30
2018-09-01T23:10:46.404Z,16.30
2018-09-01T23:13:14.853Z,16.30
2018-09-01T23:15:43.295Z,16.30
2018-09-01T23:18:11.648Z,16.30
2018-09-01T23:20:40.066Z,16.30
2018-09-01T23:23:08.348Z,16.30
2018-09-01T23:25:36.700Z,16.30
2018-09-01T23:28:05.018Z,16.30
2018-09-01T23:30:33.337Z,16.30
2018-09-01T23:33:02.357Z,16.30
2018-09-01T23:35:35.052Z,16.30
2018-09-01T23:38:03.580Z,16.30
2018-09-01T23:40:32.000Z,16.30
2018-09-01T23:43:00.345Z,16.30
2018-09-01T23:45:28.741Z,16.30
2018-09-01T23:47:57.045Z,16.30
2018-09-01T23:50:25.441Z,16.30
2018-09-01T23:52:53.729Z,16.30
2018-09-01T23:55:22.070Z,16.30
2018-09-01T23:57:50.436Z,16.30
